createdAt,value
2017-10-23T00:01:25.105Z,97054.59
2017-10-23T00:03:52.682Z,97049.56
2017-10-23T00:06:20.576Z,97047.09
2017-10-23T00:08:48.123Z,97051.77
2017-10-23T00:11:16.070Z,97049.64
2017-10-23T00:13:43.740Z,97051.31
2017-10-23T00:16:11.639Z,97039.55
2017-10-23T00:18:39.214Z,97032.77
2017-10-23T00:21:07.191Z,97030.25
2017-10-23T00:23:35.115Z,97040.36
2017-10-23T00:26:02.685Z,97041.23
2017-10-23T00:28:30.275Z,97039.13
2017-10-23T00:30:57.845Z,97041.59
2017-10-23T00:33:25.393Z,97047.44
2017-10-23T00:35:53.411Z,97048.27
2017-10-23T00:38:20.985Z,97055.88
2017-10-23T00:40:48.918Z,97054.61
2017-10-23T00:43:16.487Z,97058.03
2017-10-23T00:45:44.069Z,97054.54
2017-10-23T00:48:11.634Z,97056.25
2017-10-23T00:50:39.225Z,97061.80
2017-10-23T00:53:06.792Z,97064.33
2017-10-23T00:55:34.374Z,97060.86
2017-10-23T00:58:01.954Z,97067.17
2017-10-23T01:00:29.526Z,97064.25
2017-10-23T01:02:57.101Z,97069.76
2017-10-23T01:05:24.668Z,97064.66
2017-10-23T01:07:52.600Z,97068.52
2017-10-23T01:10:20.570Z,97073.60
2017-10-23T01:12:48.539Z,97071.02
2017-10-23T01:15:16.087Z,97068.52
2017-10-23T01:17:44.249Z,97065.91
2017-10-23T01:20:12.145Z,97068.87
2017-10-23T01:22:40.039Z,97064.25
2017-10-23T01:25:08.146Z,97065.08
2017-10-23T01:27:35.711Z,97057.93
2017-10-23T01:30:03.512Z,97051.63
2017-10-23T01:32:31.204Z,97048.73
2017-10-23T01:34:59.138Z,97049.53
2017-10-23T01:37:26.673Z,97053.81
2017-10-23T01:39:54.623Z,97052.95
2017-10-23T01:42:22.185Z,97060.94
2017-10-23T01:44:49.738Z,97058.84
2017-10-23T01:47:17.298Z,97063.49
2017-10-23T01:49:44.876Z,97073.28
2017-10-23T01:52:12.474Z,97069.91
2017-10-23T01:54:40.042Z,97074.55
2017-10-23T01:57:08.646Z,97069.89
2017-10-23T01:59:36.217Z,97069.03
2017-10-23T02:02:03.758Z,97075.81
2017-10-23T02:04:31.346Z,97070.34
2017-10-23T02:06:59.342Z,97068.70
2017-10-23T02:09:26.950Z,97071.18
2017-10-23T02:11:54.522Z,97069.53
2017-10-23T02:14:22.964Z,97071.23
2017-10-23T02:16:50.519Z,97072.88
2017-10-23T02:19:18.336Z,97072.90
2017-10-23T02:21:45.911Z,97069.48
2017-10-23T02:24:13.460Z,97080.44
2017-10-23T02:26:41.497Z,97078.34
2017-10-23T02:29:09.642Z,97073.25
2017-10-23T02:31:37.226Z,97074.09
2017-10-23T02:34:05.134Z,97075.75
2017-10-23T02:36:32.707Z,97083.34
2017-10-23T02:39:00.353Z,97083.77
2017-10-23T02:41:28.593Z,97085.86
2017-10-23T02:43:56.224Z,97089.26
2017-10-23T02:46:23.801Z,97089.61
2017-10-23T02:48:51.373Z,97087.13
2017-10-23T02:51:18.981Z,97098.02
2017-10-23T02:53:46.571Z,97095.44
2017-10-23T02:56:15.949Z,97088.34
2017-10-23T02:58:43.956Z,97094.67
2017-10-23T03:01:11.547Z,97093.41
2017-10-23T03:03:39.466Z,97102.63
2017-10-23T03:06:07.053Z,97109.00
2017-10-23T03:08:34.983Z,97107.79
2017-10-23T03:11:02.709Z,97113.33
2017-10-23T03:13:30.303Z,97120.91
2017-10-23T03:15:57.864Z,97126.75
2017-10-23T03:18:25.423Z,97132.59
2017-10-23T03:20:53.253Z,97130.52
2017-10-23T03:23:20.815Z,97134.73
2017-10-23T03:25:48.582Z,97138.53
2017-10-23T03:28:16.645Z,97144.07
2017-10-23T03:30:44.635Z,97142.70
2017-10-23T03:33:12.357Z,97145.17
2017-10-23T03:35:39.916Z,97149.42
2017-10-23T03:38:07.513Z,97142.27
2017-10-23T03:40:35.065Z,97146.76
2017-10-23T03:43:02.653Z,97151.37
2017-10-23T03:45:32.675Z,97150.12
2017-10-23T03:48:00.276Z,97152.62
2017-10-23T03:50:27.900Z,97157.30
2017-10-23T03:52:55.990Z,97162.35
2017-10-23T03:55:23.643Z,97162.35
2017-10-23T03:57:51.230Z,97164.45
2017-10-23T04:00:18.796Z,97169.08
2017-10-23T04:02:46.373Z,97172.38
2017-10-23T04:05:14.320Z,97170.22
2017-10-23T04:07:42.114Z,97176.55
2017-10-23T04:10:09.713Z,97171.09
2017-10-23T04:12:37.306Z,97172.75
2017-10-23T04:15:04.859Z,97170.63
2017-10-23T04:17:32.802Z,97176.11
2017-10-23T04:20:00.478Z,97174.81
2017-10-23T04:22:28.067Z,97176.11
2017-10-23T04:24:55.632Z,97176.52
2017-10-23T04:27:23.596Z,97177.81
2017-10-23T04:29:51.159Z,97172.30
2017-10-23T04:32:19.091Z,97176.14
2017-10-23T04:34:46.750Z,97174.45
2017-10-23T04:37:14.330Z,97170.22
2017-10-23T04:39:42.828Z,97171.09
2017-10-23T04:42:10.410Z,97171.52
2017-10-23T04:44:38.408Z,97174.05
2017-10-23T04:47:06.855Z,97176.09
2017-10-23T04:49:34.428Z,97172.30
2017-10-23T04:52:02.572Z,97178.98
2017-10-23T04:54:30.138Z,97173.47
2017-10-23T04:56:57.692Z,97175.88
2017-10-23T04:59:25.255Z,97174.19
2017-10-23T05:01:53.194Z,97173.69
2017-10-23T05:04:20.756Z,97181.61
2017-10-23T05:06:49.093Z,97178.97
2017-10-23T05:09:16.715Z,97178.48
2017-10-23T05:11:44.276Z,97183.09
2017-10-23T05:14:11.881Z,97186.95
2017-10-23T05:16:39.478Z,97189.05
2017-10-23T05:19:07.969Z,97181.37
2017-10-23T05:21:35.514Z,97186.36
2017-10-23T05:24:03.111Z,97188.52
2017-10-23T05:26:31.050Z,97188.48
2017-10-23T05:28:58.609Z,97198.63
2017-10-23T05:31:27.287Z,97199.45
2017-10-23T05:33:54.911Z,97196.50
2017-10-23T05:36:22.490Z,97196.41
2017-10-23T05:38:50.048Z,97203.98
2017-10-23T05:41:17.651Z,97209.04
2017-10-23T05:43:45.212Z,97208.91
2017-10-23T05:46:13.682Z,97204.79
2017-10-23T05:48:41.332Z,97206.48
2017-10-23T05:51:08.895Z,97207.75
2017-10-23T05:53:37.860Z,97211.53
2017-10-23T05:56:05.849Z,97206.52
2017-10-23T05:58:37.525Z,97205.69
2017-10-23T06:01:05.694Z,97211.20
2017-10-23T06:03:33.283Z,97216.28
2017-10-23T06:06:01.233Z,97208.27
2017-10-23T06:08:28.920Z,97207.41
2017-10-23T06:10:56.672Z,97213.30
2017-10-23T06:13:24.227Z,97215.02
2017-10-23T06:15:51.799Z,97218.31
2017-10-23T06:18:20.558Z,97219.17
2017-10-23T06:20:48.131Z,97225.46
2017-10-23T06:23:15.709Z,97226.82
2017-10-23T06:25:43.319Z,97227.22
2017-10-23T06:28:11.071Z,97224.33
2017-10-23T06:30:38.985Z,97215.91
2017-10-23T06:33:06.520Z,97217.20
2017-10-23T06:35:34.109Z,97219.30
2017-10-23T06:38:01.706Z,97219.17
2017-10-23T06:40:29.264Z,97228.58
2017-10-23T06:42:56.821Z,97232.00
2017-10-23T06:45:24.372Z,97231.63
2017-10-23T06:47:51.955Z,97228.77
2017-10-23T06:50:19.501Z,97226.77
2017-10-23T06:52:47.080Z,97233.79
2017-10-23T06:55:14.639Z,97238.53
2017-10-23T06:57:42.177Z,97232.28
2017-10-23T07:00:09.741Z,97240.23
2017-10-23T07:02:37.301Z,97233.55
2017-10-23T07:05:04.880Z,97242.76
2017-10-23T07:07:32.422Z,97235.73
2017-10-23T07:09:59.993Z,97241.28
2017-10-23T07:12:27.553Z,97237.43
2017-10-23T07:14:55.128Z,97233.76
2017-10-23T07:17:22.676Z,97244.80
2017-10-23T07:19:50.255Z,97247.75
2017-10-23T07:22:17.838Z,97251.11
2017-10-23T07:24:45.393Z,97252.44
2017-10-23T07:27:12.961Z,97256.63
2017-10-23T07:29:40.533Z,97253.27
2017-10-23T07:32:08.297Z,97253.77
2017-10-23T07:34:35.895Z,97254.13
2017-10-23T07:37:03.833Z,97252.98
2017-10-23T07:39:31.407Z,97257.64
2017-10-23T07:41:58.987Z,97253.45
2017-10-23T07:44:26.612Z,97256.04
2017-10-23T07:46:54.527Z,97253.57
2017-10-23T07:49:22.137Z,97254.12
2017-10-23T07:51:49.725Z,97256.73
2017-10-23T07:54:19.045Z,97258.55
2017-10-23T07:56:46.785Z,97255.44
2017-10-23T07:59:14.357Z,97258.92
2017-10-23T08:01:41.926Z,97261.88
2017-10-23T08:04:09.553Z,97264.96
2017-10-23T08:06:37.131Z,97263.72
2017-10-23T08:09:04.697Z,97265.91
2017-10-23T08:11:32.274Z,97272.37
2017-10-23T08:13:59.852Z,97268.67
2017-10-23T08:16:27.421Z,97272.58
2017-10-23T08:18:54.968Z,97272.61
2017-10-23T08:21:22.539Z,97271.96
2017-10-23T08:23:50.164Z,97270.98
2017-10-23T08:26:18.631Z,97269.28
2017-10-23T08:28:46.225Z,97277.84
2017-10-23T08:31:13.795Z,97276.27
2017-10-23T08:33:41.393Z,97280.58
2017-10-23T08:36:08.938Z,97278.80
2017-10-23T08:38:36.614Z,97281.05
2017-10-23T08:41:04.570Z,97281.88
2017-10-23T08:43:32.165Z,97287.19
2017-10-23T08:45:59.741Z,97285.92
2017-10-23T08:48:27.353Z,97285.73
2017-10-23T08:50:54.944Z,97291.38
2017-10-23T08:53:22.498Z,97286.74
2017-10-23T08:55:50.366Z,97290.14
2017-10-23T08:58:17.921Z,97284.57
2017-10-23T09:00:45.610Z,97289.69
2017-10-23T09:03:13.194Z,97286.67
2017-10-23T09:05:40.780Z,97287.15
2017-10-23T09:08:08.428Z,97283.98
2017-10-23T09:10:36.010Z,97286.63
2017-10-23T09:13:03.620Z,97283.68
2017-10-23T09:15:31.232Z,97287.95
2017-10-23T09:17:59.226Z,97288.16
2017-10-23T09:20:26.793Z,97286.66
2017-10-23T09:22:54.380Z,97284.98
2017-10-23T09:25:22.144Z,97288.58
2017-10-23T09:27:49.720Z,97294.98
2017-10-23T09:30:18.238Z,97292.01
2017-10-23T09:32:45.818Z,97299.47
2017-10-23T09:35:13.422Z,97296.52
2017-10-23T09:37:40.991Z,97308.11
2017-10-23T09:40:08.588Z,97310.68
2017-10-23T09:42:36.156Z,97310.27
2017-10-23T09:45:03.728Z,97316.27
2017-10-23T09:47:31.346Z,97313.48
2017-10-23T09:49:59.066Z,97311.45
2017-10-23T09:52:26.692Z,97317.19
2017-10-23T09:54:54.768Z,97324.36
2017-10-23T09:57:22.350Z,97319.09
2017-10-23T09:59:49.936Z,97327.02
2017-10-23T10:02:17.858Z,97326.53
2017-10-23T10:04:45.426Z,97324.45
2017-10-23T10:07:13.002Z,97323.41
2017-10-23T10:09:40.592Z,97321.80
2017-10-23T10:12:08.148Z,97319.39
2017-10-23T10:14:35.744Z,97317.84
2017-10-23T10:17:03.316Z,97315.89
2017-10-23T10:19:30.902Z,97309.31
2017-10-23T10:21:58.502Z,97315.72
2017-10-23T10:24:26.099Z,97313.69
2017-10-23T10:26:53.663Z,97310.39
2017-10-23T10:29:21.236Z,97314.29
2017-10-23T10:31:48.795Z,97315.53
2017-10-23T10:34:16.361Z,97315.07
2017-10-23T10:36:43.952Z,97316.56
2017-10-23T10:39:11.544Z,97308.73
2017-10-23T10:41:39.150Z,97315.23
2017-10-23T10:44:06.711Z,97315.98
2017-10-23T10:46:34.355Z,97311.27
2017-10-23T10:49:01.985Z,97308.05
2017-10-23T10:51:29.534Z,97313.28
2017-10-23T10:53:57.161Z,97307.66
2017-10-23T10:56:25.025Z,97309.13
2017-10-23T10:58:52.628Z,97308.33
2017-10-23T11:01:20.228Z,97305.36
2017-10-23T11:03:47.880Z,97304.95
2017-10-23T11:06:15.926Z,97306.56
2017-10-23T11:08:44.908Z,97306.06
2017-10-23T11:11:12.465Z,97304.80
2017-10-23T11:13:40.364Z,97309.05
2017-10-23T11:16:08.403Z,97306.80
2017-10-23T11:18:35.994Z,97313.88
2017-10-23T11:21:03.636Z,97309.08
2017-10-23T11:23:31.358Z,97319.63
2017-10-23T11:25:58.952Z,97318.68
2017-10-23T11:28:26.836Z,97327.09
2017-10-23T11:30:55.910Z,97330.83
2017-10-23T11:33:23.923Z,97332.46
2017-10-23T11:35:51.519Z,97327.76
2017-10-23T11:38:19.253Z,97335.52
2017-10-23T11:40:47.213Z,97335.12
2017-10-23T11:43:14.822Z,97324.73
2017-10-23T11:45:42.385Z,97324.77
2017-10-23T11:48:10.411Z,97325.77
2017-10-23T11:50:38.006Z,97320.86
2017-10-23T11:53:06.073Z,97322.52
2017-10-23T11:55:33.634Z,97316.59
2017-10-23T11:58:01.933Z,97312.81
2017-10-23T12:00:29.527Z,97313.81
2017-10-23T12:02:57.097Z,97318.66
2017-10-23T12:05:24.718Z,97319.13
2017-10-23T12:07:52.296Z,97317.73
2017-10-23T12:10:19.914Z,97319.33
2017-10-23T12:12:48.814Z,97326.04
2017-10-23T12:15:16.421Z,97320.48
2017-10-23T12:17:44.092Z,97319.61
2017-10-23T12:20:11.678Z,97326.83
2017-10-23T12:22:39.306Z,97328.77
2017-10-23T12:25:07.669Z,97325.83
2017-10-23T12:27:35.294Z,97327.84
2017-10-23T12:30:03.554Z,97327.87
2017-10-23T12:32:31.213Z,97329.22
2017-10-23T12:34:58.934Z,97333.87
2017-10-23T12:37:26.526Z,97332.61
2017-10-23T12:39:54.565Z,97324.48
2017-10-23T12:42:22.622Z,97333.05
2017-10-23T12:44:50.632Z,97329.26
2017-10-23T12:47:18.188Z,97332.36
2017-10-23T12:49:45.809Z,97336.27
2017-10-23T12:52:14.906Z,97331.23
2017-10-23T12:54:42.510Z,97335.41
2017-10-23T12:57:10.693Z,97324.92
2017-10-23T12:59:38.638Z,97331.72
2017-10-23T13:02:06.651Z,97329.38
2017-10-23T13:04:34.230Z,97329.92
2017-10-23T13:07:01.851Z,97335.88
2017-10-23T13:09:29.806Z,97337.52
2017-10-23T13:11:57.401Z,97339.65
2017-10-23T13:14:24.996Z,97338.72
2017-10-23T13:16:52.565Z,97346.68
2017-10-23T13:19:20.143Z,97346.25
2017-10-23T13:21:47.846Z,97341.17
2017-10-23T13:24:15.484Z,97345.84
2017-10-23T13:26:43.061Z,97347.91
2017-10-23T13:29:10.733Z,97352.62
2017-10-23T13:31:38.484Z,97355.63
2017-10-23T13:34:06.060Z,97344.58
2017-10-23T13:36:34.062Z,97350.03
2017-10-23T13:39:01.720Z,97350.91
2017-10-23T13:41:29.730Z,97347.55
2017-10-23T13:43:57.314Z,97345.09
2017-10-23T13:46:24.936Z,97342.21
2017-10-23T13:48:52.506Z,97343.95
2017-10-23T13:51:20.085Z,97348.63
2017-10-23T13:53:47.679Z,97341.33
2017-10-23T13:56:15.264Z,97349.75
2017-10-23T13:58:43.828Z,97342.95
2017-10-23T14:01:11.409Z,97351.80
2017-10-23T14:03:39.003Z,97354.28
2017-10-23T14:06:06.570Z,97358.48
2017-10-23T14:08:34.176Z,97365.68
2017-10-23T14:11:01.739Z,97363.96
2017-10-23T14:13:29.658Z,97368.09
2017-10-23T14:15:58.651Z,97369.25
2017-10-23T14:18:26.220Z,97375.55
2017-10-23T14:20:53.825Z,97376.05
2017-10-23T14:23:21.413Z,97375.12
2017-10-23T14:25:49.019Z,97375.55
2017-10-23T14:28:17.053Z,97375.94
2017-10-23T14:30:44.643Z,97374.64
2017-10-23T14:33:12.245Z,97375.07
2017-10-23T14:35:39.968Z,97376.39
2017-10-23T14:38:08.999Z,97381.08
2017-10-23T14:40:36.599Z,97378.53
2017-10-23T14:43:04.183Z,97382.76
2017-10-23T14:45:31.789Z,97382.34
2017-10-23T14:47:59.392Z,97382.69
2017-10-23T14:50:26.996Z,97379.24
2017-10-23T14:52:54.910Z,97391.05
2017-10-23T14:55:22.466Z,97392.70
2017-10-23T14:57:50.361Z,97394.30
2017-10-23T15:00:18.507Z,97399.79
2017-10-23T15:02:46.069Z,97402.28
2017-10-23T15:05:14.761Z,97390.80
2017-10-23T15:07:42.352Z,97404.72
2017-10-23T15:10:09.937Z,97396.67
2017-10-23T15:12:37.525Z,97404.27
2017-10-23T15:15:05.117Z,97403.43
2017-10-23T15:17:32.693Z,97402.16
2017-10-23T15:20:00.285Z,97404.27
2017-10-23T15:22:27.882Z,97409.34
2017-10-23T15:24:55.494Z,97408.91
2017-10-23T15:27:24.498Z,97411.40
2017-10-23T15:29:52.091Z,97415.97
2017-10-23T15:32:20.175Z,97415.95
2017-10-23T15:34:47.772Z,97412.95
2017-10-23T15:37:15.414Z,97410.80
2017-10-23T15:39:43.019Z,97416.60
2017-10-23T15:42:10.980Z,97426.67
2017-10-23T15:44:39.019Z,97424.03
2017-10-23T15:47:06.607Z,97423.13
2017-10-23T15:49:34.545Z,97426.38
2017-10-23T15:52:02.127Z,97421.64
2017-10-23T15:54:30.153Z,97423.72
2017-10-23T15:56:57.759Z,97427.90
2017-10-23T15:59:25.341Z,97430.84
2017-10-23T16:01:54.415Z,97431.65
2017-10-23T16:04:21.989Z,97436.64
2017-10-23T16:06:49.587Z,97437.07
2017-10-23T16:09:17.160Z,97439.09
2017-10-23T16:11:45.383Z,97438.17
2017-10-23T16:14:13.008Z,97450.44
2017-10-23T16:16:40.941Z,97447.02
2017-10-23T16:19:08.546Z,97452.89
2017-10-23T16:21:36.117Z,97454.50
2017-10-23T16:24:03.719Z,97456.20
2017-10-23T16:26:33.020Z,97459.97
2017-10-23T16:29:00.636Z,97463.72
2017-10-23T16:31:29.969Z,97472.52
2017-10-23T16:33:57.555Z,97475.06
2017-10-23T16:36:25.179Z,97478.86
2017-10-23T16:38:53.195Z,97479.20
2017-10-23T16:41:20.924Z,97482.11
2017-10-23T16:43:48.558Z,97481.62
2017-10-23T16:46:16.399Z,97490.45
2017-10-23T16:48:44.360Z,97498.45
2017-10-23T16:51:11.964Z,97500.96
2017-10-23T16:53:39.552Z,97498.86
2017-10-23T16:56:07.278Z,97506.83
2017-10-23T16:58:37.407Z,97506.37
2017-10-23T17:01:04.976Z,97513.91
2017-10-23T17:03:32.584Z,97516.84
2017-10-23T17:06:00.220Z,97518.47
2017-10-23T17:08:27.825Z,97520.17
2017-10-23T17:10:55.454Z,97519.38
2017-10-23T17:13:23.168Z,97526.94
2017-10-23T17:15:50.821Z,97526.84
2017-10-23T17:18:20.592Z,97534.88
2017-10-23T17:20:48.250Z,97536.11
2017-10-23T17:23:16.474Z,97539.53
2017-10-23T17:25:46.436Z,97536.14
2017-10-23T17:28:14.720Z,97536.97
2017-10-23T17:30:42.863Z,97542.04
2017-10-23T17:33:10.487Z,97547.47
2017-10-23T17:35:38.921Z,97545.38
2017-10-23T17:38:06.598Z,97544.48
2017-10-23T17:40:35.828Z,97543.18
2017-10-23T17:43:03.495Z,97549.51
2017-10-23T17:45:32.376Z,97552.91
2017-10-23T17:48:00.071Z,97555.44
2017-10-23T17:50:28.083Z,97556.30
2017-10-23T17:52:55.765Z,97557.17
2017-10-23T17:55:23.645Z,97564.77
2017-10-23T17:57:51.326Z,97566.09
2017-10-23T18:00:18.966Z,97568.99
2017-10-23T18:02:47.209Z,97572.36
2017-10-23T18:05:16.211Z,97565.20
2017-10-23T18:07:44.064Z,97571.06
2017-10-23T18:10:11.733Z,97576.56
2017-10-23T18:12:40.003Z,97580.39
2017-10-23T18:15:08.408Z,97576.56
2017-10-23T18:17:36.173Z,97580.76
2017-10-23T18:20:04.050Z,97581.62
2017-10-23T18:22:32.847Z,97583.69
2017-10-23T18:25:00.623Z,97586.63
2017-10-23T18:27:28.465Z,97589.16
2017-10-23T18:29:56.416Z,97600.12
2017-10-23T18:32:24.309Z,97596.69
2017-10-23T18:34:52.276Z,97597.05
2017-10-23T18:37:20.030Z,97597.88
2017-10-23T18:39:47.953Z,97594.52
2017-10-23T18:42:16.803Z,97592.22
2017-10-23T18:44:44.669Z,97588.39
2017-10-23T18:47:13.673Z,97588.72
2017-10-23T18:49:41.644Z,97593.82
2017-10-23T18:52:10.731Z,97593.39
2017-10-23T18:54:38.533Z,97599.72
2017-10-23T18:57:06.511Z,97603.05
2017-10-23T18:59:35.460Z,97607.64
2017-10-23T19:02:03.732Z,97611.84
2017-10-23T19:04:31.703Z,97608.84
2017-10-23T19:06:59.702Z,97612.64
2017-10-23T19:09:28.196Z,97614.73
2017-10-23T19:11:56.747Z,97615.13
2017-10-23T19:14:27.103Z,97615.13
2017-10-23T19:16:56.319Z,97620.59
2017-10-23T19:19:25.696Z,97614.70
2017-10-23T19:21:54.970Z,97613.91
2017-10-23T19:24:23.801Z,97618.09
2017-10-23T19:26:53.579Z,97620.99
2017-10-23T19:29:21.541Z,97618.86
2017-10-23T19:31:49.696Z,97622.59
2017-10-23T19:34:20.150Z,97628.45
2017-10-23T19:36:48.053Z,97630.41
2017-10-23T19:39:15.877Z,97632.50
2017-10-23T19:41:43.893Z,97628.59
2017-10-23T19:44:12.734Z,97637.09
2017-10-23T19:46:42.138Z,97634.12
2017-10-23T19:49:09.939Z,97630.66
2017-10-23T19:51:37.771Z,97629.76
2017-10-23T19:54:05.609Z,97635.28
2017-10-23T19:56:33.608Z,97634.89
2017-10-23T19:59:01.791Z,97639.13
2017-10-23T20:01:29.756Z,97651.41
2017-10-23T20:03:57.725Z,97643.89
2017-10-23T20:06:25.982Z,97651.52
2017-10-23T20:08:54.177Z,97648.55
2017-10-23T20:11:22.780Z,97648.52
2017-10-23T20:13:50.621Z,97650.61
2017-10-23T20:16:18.497Z,97656.14
2017-10-23T20:18:46.259Z,97657.05
2017-10-23T20:21:14.222Z,97666.38
2017-10-23T20:23:42.196Z,97662.18
2017-10-23T20:26:09.959Z,97668.08
2017-10-23T20:28:37.805Z,97665.94
2017-10-23T20:31:05.666Z,97672.66
2017-10-23T20:33:33.397Z,97668.03
2017-10-23T20:36:01.192Z,97665.07
2017-10-23T20:38:29.484Z,97666.34
2017-10-23T20:40:57.272Z,97667.53
2017-10-23T20:43:24.993Z,97666.70
2017-10-23T20:45:52.853Z,97675.56
2017-10-23T20:48:20.558Z,97673.86
2017-10-23T20:50:48.214Z,97670.09
2017-10-23T20:53:15.881Z,97675.56
2017-10-23T20:55:43.549Z,97676.86
2017-10-23T20:58:11.274Z,97678.16
2017-10-23T21:00:38.892Z,97670.93
2017-10-23T21:03:06.493Z,97678.95
2017-10-23T21:05:34.105Z,97669.63
2017-10-23T21:08:01.743Z,97683.15
2017-10-23T21:10:29.326Z,97683.58
2017-10-23T21:12:56.954Z,97684.41
2017-10-23T21:15:24.560Z,97677.69
2017-10-23T21:17:52.200Z,97676.83
2017-10-23T21:20:20.444Z,97685.25
2017-10-23T21:22:48.684Z,97683.62
2017-10-23T21:25:16.604Z,97679.39
2017-10-23T21:27:44.628Z,97679.83
2017-10-23T21:30:12.602Z,97683.25
2017-10-23T21:32:40.213Z,97679.02
2017-10-23T21:35:08.104Z,97683.22
2017-10-23T21:37:35.684Z,97684.88
2017-10-23T21:40:03.263Z,97692.48
2017-10-23T21:42:32.352Z,97689.55
2017-10-23T21:47:33.881Z,97692.84
2017-10-23T21:50:02.022Z,97695.37
2017-10-23T21:52:30.023Z,97691.53
2017-10-23T21:54:57.911Z,97694.46
2017-10-23T21:57:25.513Z,97691.46
2017-10-23T21:59:53.859Z,97696.02
2017-10-23T22:02:21.437Z,97701.47
2017-10-23T22:04:49.044Z,97697.67
2017-10-23T22:07:17.501Z,97704.03
2017-10-23T22:09:45.338Z,97709.97
2017-10-23T22:12:12.909Z,97709.53
2017-10-23T22:14:40.535Z,97707.87
2017-10-23T22:17:08.447Z,97717.63
2017-10-23T22:19:36.017Z,97712.57
2017-10-23T22:22:03.592Z,97715.54
2017-10-23T22:24:31.171Z,97720.64
2017-10-23T22:26:59.121Z,97716.37
2017-10-23T22:29:26.756Z,97716.80
2017-10-23T22:31:54.367Z,97715.54
2017-10-23T22:34:24.514Z,97717.23
2017-10-23T22:36:52.107Z,97712.14
2017-10-23T22:39:19.678Z,97713.37
2017-10-23T22:41:47.261Z,97718.83
2017-10-23T22:44:14.871Z,97720.96
2017-10-23T22:46:42.459Z,97719.73
2017-10-23T22:49:10.057Z,97714.67
2017-10-23T22:51:38.001Z,97719.27
2017-10-23T22:54:05.742Z,97722.63
2017-10-23T22:56:33.675Z,97723.92
2017-10-23T22:59:01.591Z,97725.22
2017-10-23T23:01:29.134Z,97729.42
2017-10-23T23:03:56.716Z,97728.19
2017-10-23T23:06:24.317Z,97724.83
2017-10-23T23:08:51.909Z,97727.39
2017-10-23T23:11:20.091Z,97729.45
2017-10-23T23:13:47.681Z,97728.23
2017-10-23T23:16:15.259Z,97729.02
2017-10-23T23:18:42.840Z,97731.16
2017-10-23T23:21:10.832Z,97738.75
2017-10-23T23:23:40.319Z,97735.78
2017-10-23T23:26:07.890Z,97732.38
2017-10-23T23:28:35.899Z,97736.61
2017-10-23T23:31:03.501Z,97732.81
2017-10-23T23:33:31.748Z,97731.08
2017-10-23T23:35:59.311Z,97737.87
2017-10-23T23:38:26.904Z,97742.50
2017-10-23T23:40:55.068Z,97742.87
2017-10-23T23:43:22.996Z,97746.63
2017-10-23T23:45:50.564Z,97739.86
2017-10-23T23:48:19.595Z,97744.92
2017-10-23T23:50:47.177Z,97746.58
2017-10-23T23:53:14.720Z,97749.95
2017-10-23T23:55:44.091Z,97749.11
2017-10-23T23:58:11.654Z,97758.80
